Terminal Aerodrome Forecast
Issued by NWS Lake Charles, LA

Home | Current Version | Previous Version | Text Only | Print | Product List | Glossary On
Versions: 1 2 3 4 5 6 7 8 9 10 11 12 13 14 15 16 17 18 19 20 21 22 23 24 25 26 27 28 29 30 31 32
000
FTUS44 KLCH 162320
TAFARA
TAF
KARA 162320Z 1700/1724 31012G18KT P6SM VCSH SCT025 BKN035
     FM170200 VRB06KT P6SM VCSH SCT025 BKN100
     FM170600 14006KT P6SM VCSH SCT025 BKN100
     FM171400 20010KT P6SM VCTS SCT025CB BKN040
      TEMPO 1716/1720 3SM SHRA BKN025
     FM172000 21011G18KT P6SM VCTS SCT025CB BKN040
      TEMPO 1720/1724 3SM SHRA BKN025=

USA.gov is the U.S. government's official web portal to all federal, state and local government web resources and services.